Portada
METAR-TAF:

METAR-TAF

Aeropuertos :

Bric della Croce

Turín, Italia

latitud: 45-02N, longitud: 007-44E, altitud: 709 m

Observación

El informe se hizo hace 29 minutos, a las 08:55 UTC
Viento 3 kt del norte
Temperatura 5°C
Humedad 93%
Presión 1024 hPa
Visibilidad 10 km o más
Nubes dispersas a una altura de 1600 ft

METAR: LIMK 070855Z 36003KT 9999 SCT016 05/04 Q1024 RMK SCT VAL FOSCHIA VIS MIN 9999

Hora: 10:24 (09:24 UTC)


TAF: falta

Observaciones y pronósticos meteorológicos de más de 4000 aeropuertos (mensajes METAR y TAF).

Los puntos amarillos y rojos representan las estaciones disponibles.

Ponga el ratón en el punto deseado para ver el nombre de la estación.

Haga clic para ver las observaciones y los pronósticos meteorológicos.

Para cambiar el mapa : haga clic en los botones verdes con una cruz de color negro para hacer un zoom, en el botón verde con un guión para alejar o en las flechas verdes para mapas adyacentes.


METAR-TAF: